Terminal Aerodrome Forecast
Issued by NWS

Home | Current Version | Previous Version | Text Only | Print | Product List | Glossary On
Versions: 1 2 3 4 5 6 7 8 9 10 11 12 13 14 15 16 17
000
FTUS43 KGRB 191100
TAFCWA
TAF
KCWA 191133Z 1912/2012 15006KT 2SM BR OVC002
      TEMPO 1912/1914 1SM BR SCT002 OVC004
     FM191600 18014G24KT P6SM SCT045 BKN200
     FM192300 19011KT P6SM BKN100 BKN250
     FM200500 20008KT 5SM BR SCT012 BKN025
      TEMPO 2008/2012 2SM TSRA OVC012CB=

USA.gov is the U.S. government's official web portal to all federal, state and local government web resources and services.